createdAt,value
2023-02-26T00:00:05.818Z,1008.97
2023-02-26T00:01:05.901Z,1008.97
2023-02-26T00:02:05.847Z,1008.99
2023-02-26T00:03:05.765Z,1008.99
2023-02-26T00:04:06.009Z,1008.97
2023-02-26T00:05:05.723Z,1009.00
2023-02-26T00:06:05.813Z,1008.99
2023-02-26T00:07:05.726Z,1009.00
2023-02-26T00:08:05.684Z,1009.02
2023-02-26T00:09:05.668Z,1008.98
2023-02-26T00:10:05.676Z,1009.03
2023-02-26T00:11:05.653Z,1009.01
2023-02-26T00:12:15.589Z,1009.06
2023-02-26T00:13:05.743Z,1009.05
2023-02-26T00:14:05.621Z,1009.03
2023-02-26T00:15:05.617Z,1009.07
2023-02-26T00:16:05.626Z,1009.07
2023-02-26T00:17:05.682Z,1009.12
2023-02-26T00:18:05.566Z,1009.09
2023-02-26T00:19:05.567Z,1009.13
2023-02-26T00:20:05.550Z,1009.15
2023-02-26T00:21:05.543Z,1009.18
2023-02-26T00:22:05.596Z,1009.18
2023-02-26T00:23:05.755Z,1009.20
2023-02-26T00:24:05.642Z,1009.22
2023-02-26T00:25:05.455Z,1009.22
2023-02-26T00:26:05.466Z,1009.26
2023-02-26T00:27:05.604Z,1009.30
2023-02-26T00:28:05.472Z,1009.31
2023-02-26T00:29:06.407Z,1009.33
2023-02-26T00:30:05.710Z,1009.33
2023-02-26T00:31:06.120Z,1009.24
2023-02-26T00:32:05.514Z,1009.32
2023-02-26T00:33:05.386Z,1009.32
2023-02-26T00:34:05.386Z,1009.34
2023-02-26T00:35:05.355Z,1009.32
2023-02-26T00:36:05.366Z,1009.38
2023-02-26T00:37:05.367Z,1009.40
2023-02-26T00:38:05.315Z,1009.36
2023-02-26T00:39:05.302Z,1009.36
2023-02-26T00:40:05.349Z,1009.40
2023-02-26T00:41:05.753Z,1009.42
2023-02-26T00:42:06.267Z,1009.39
2023-02-26T00:43:05.539Z,1009.42
2023-02-26T00:44:05.221Z,1009.44
2023-02-26T00:45:05.232Z,1009.47
2023-02-26T00:46:05.236Z,1009.45
2023-02-26T00:47:05.233Z,1009.47
2023-02-26T00:48:05.211Z,1009.48
2023-02-26T00:49:06.037Z,1009.49
2023-02-26T00:50:05.333Z,1009.48
2023-02-26T00:51:05.180Z,1009.49
2023-02-26T00:52:05.148Z,1009.46
2023-02-26T00:53:05.149Z,1009.48
2023-02-26T00:54:06.068Z,1009.47
2023-02-26T00:55:05.169Z,1009.47
2023-02-26T00:56:05.121Z,1009.45
2023-02-26T00:57:05.094Z,1009.47
2023-02-26T00:58:05.248Z,1009.47
2023-02-26T00:59:05.084Z,1009.49
2023-02-26T01:00:05.023Z,1009.49
2023-02-26T01:01:05.175Z,1009.51
2023-02-26T01:02:05.160Z,1009.47
2023-02-26T01:03:05.002Z,1009.53
2023-02-26T01:04:05.040Z,1009.46
2023-02-26T01:05:04.993Z,1009.51
2023-02-26T01:06:04.980Z,1009.50
2023-02-26T01:07:04.964Z,1009.50
2023-02-26T01:08:05.743Z,1009.57
2023-02-26T01:09:04.945Z,1009.55
2023-02-26T01:10:05.103Z,1009.55
2023-02-26T01:11:05.023Z,1009.57
2023-02-26T01:12:04.963Z,1009.60
2023-02-26T01:13:05.778Z,1009.62
2023-02-26T01:14:05.324Z,1009.64
2023-02-26T01:15:04.868Z,1009.68
2023-02-26T01:16:05.336Z,1009.66
2023-02-26T01:17:04.999Z,1009.68
2023-02-26T01:18:06.502Z,1009.61
2023-02-26T01:19:04.879Z,1009.66
2023-02-26T01:20:04.838Z,1009.70
2023-02-26T01:21:04.853Z,1009.71
2023-02-26T01:22:04.994Z,1009.70
2023-02-26T01:23:04.773Z,1009.74
2023-02-26T01:24:05.742Z,1009.68
2023-02-26T01:25:05.655Z,1009.76
2023-02-26T01:26:04.756Z,1009.72
2023-02-26T01:27:04.854Z,1009.76
2023-02-26T01:28:04.706Z,1009.74
2023-02-26T01:29:04.687Z,1009.80
2023-02-26T01:30:04.734Z,1009.73
2023-02-26T01:31:04.808Z,1009.76
2023-02-26T01:32:04.834Z,1009.81
2023-02-26T01:33:05.423Z,1009.83
2023-02-26T01:34:04.639Z,1009.84
2023-02-26T01:35:05.322Z,1009.82
2023-02-26T01:36:04.600Z,1009.86
2023-02-26T01:37:04.559Z,1009.85
2023-02-26T01:38:04.551Z,1009.87
2023-02-26T01:39:04.689Z,1009.89
2023-02-26T01:40:04.661Z,1009.92
2023-02-26T01:41:04.562Z,1009.96
2023-02-26T01:42:04.660Z,1009.98
2023-02-26T01:43:05.486Z,1010.02
2023-02-26T01:44:04.600Z,1010.00
2023-02-26T01:45:04.534Z,1010.00
2023-02-26T01:46:04.528Z,1009.95
2023-02-26T01:47:05.411Z,1010.04
2023-02-26T01:48:04.662Z,1010.05
2023-02-26T01:49:04.425Z,1010.09
2023-02-26T01:50:04.463Z,1010.05
2023-02-26T01:51:04.466Z,1010.01
2023-02-26T01:52:04.441Z,1010.04
2023-02-26T01:53:04.382Z,1010.04
2023-02-26T01:54:04.393Z,1010.04
2023-02-26T01:55:04.354Z,1010.05
2023-02-26T01:56:04.353Z,1010.06
2023-02-26T01:57:04.797Z,1010.09
2023-02-26T01:58:04.558Z,1010.14
2023-02-26T01:59:05.472Z,1010.09
2023-02-26T02:00:04.307Z,1010.06
2023-02-26T02:01:05.171Z,1010.08
2023-02-26T02:02:04.361Z,1010.13
2023-02-26T02:03:04.377Z,1010.17
2023-02-26T02:04:04.399Z,1010.22
2023-02-26T02:05:05.396Z,1010.25
2023-02-26T02:06:04.239Z,1010.28
2023-02-26T02:07:04.361Z,1010.26
2023-02-26T02:08:05.114Z,1010.25
2023-02-26T02:09:04.215Z,1010.28
2023-02-26T02:10:05.427Z,1010.32
2023-02-26T02:11:04.253Z,1010.31
2023-02-26T02:12:04.188Z,1010.34
2023-02-26T02:13:04.304Z,1010.35
2023-02-26T02:14:04.111Z,1010.33
2023-02-26T02:15:04.113Z,1010.38
2023-02-26T02:16:04.221Z,1010.30
2023-02-26T02:17:04.431Z,1010.37
2023-02-26T02:18:04.731Z,1010.39
2023-02-26T02:19:04.304Z,1010.42
2023-02-26T02:20:04.198Z,1010.41
2023-02-26T02:21:04.917Z,1010.41
2023-02-26T02:22:04.031Z,1010.44
2023-02-26T02:23:04.405Z,1010.43
2023-02-26T02:24:04.021Z,1010.46
2023-02-26T02:25:04.052Z,1010.45
2023-02-26T02:26:03.986Z,1010.45
2023-02-26T02:27:04.027Z,1010.52
2023-02-26T02:28:03.983Z,1010.49
2023-02-26T02:29:03.998Z,1010.47
2023-02-26T02:30:03.962Z,1010.49
2023-02-26T02:31:04.965Z,1010.52
2023-02-26T02:32:04.374Z,1010.49
2023-02-26T02:33:03.932Z,1010.50
2023-02-26T02:34:03.960Z,1010.51
2023-02-26T02:35:03.864Z,1010.52
2023-02-26T02:36:03.862Z,1010.52
2023-02-26T02:37:03.849Z,1010.58
2023-02-26T02:38:03.834Z,1010.59
2023-02-26T02:39:03.810Z,1010.59
2023-02-26T02:40:04.620Z,1010.59
2023-02-26T02:41:03.830Z,1010.60
2023-02-26T02:42:04.909Z,1010.63
2023-02-26T02:43:04.109Z,1010.64
2023-02-26T02:44:03.874Z,1010.58
2023-02-26T02:45:04.083Z,1010.64
2023-02-26T02:46:03.835Z,1010.66
2023-02-26T02:47:03.878Z,1010.65
2023-02-26T02:48:03.712Z,1010.66
2023-02-26T02:49:03.707Z,1010.69
2023-02-26T02:50:03.734Z,1010.73
2023-02-26T02:51:03.684Z,1010.71
2023-02-26T02:52:03.672Z,1010.68
2023-02-26T02:53:03.732Z,1010.70
2023-02-26T02:54:03.647Z,1010.71
2023-02-26T02:55:04.594Z,1010.81
2023-02-26T02:56:03.613Z,1010.78
2023-02-26T02:57:03.605Z,1010.80
2023-02-26T02:58:03.641Z,1010.81
2023-02-26T02:59:03.595Z,1010.79
2023-02-26T03:00:03.606Z,1010.83
2023-02-26T03:01:03.806Z,1010.82
2023-02-26T03:02:03.588Z,1010.81
2023-02-26T03:03:03.715Z,1010.81
2023-02-26T03:04:03.715Z,1010.85
2023-02-26T03:05:03.521Z,1010.86
2023-02-26T03:06:04.155Z,1010.87
2023-02-26T03:07:04.005Z,1010.87
2023-02-26T03:08:03.536Z,1010.91
2023-02-26T03:09:03.437Z,1010.89
2023-02-26T03:10:03.581Z,1010.90
2023-02-26T03:11:04.176Z,1010.93
2023-02-26T03:12:03.762Z,1010.92
2023-02-26T03:13:03.508Z,1010.91
2023-02-26T03:14:03.822Z,1010.92
2023-02-26T03:15:03.486Z,1010.97
2023-02-26T03:16:03.397Z,1010.92
2023-02-26T03:17:03.375Z,1010.95
2023-02-26T03:18:03.332Z,1010.95
2023-02-26T03:19:03.327Z,1011.00
2023-02-26T03:20:03.640Z,1011.02
2023-02-26T03:21:04.243Z,1011.01
2023-02-26T03:22:04.020Z,1011.03
2023-02-26T03:23:04.125Z,1011.07
2023-02-26T03:24:03.396Z,1011.02
2023-02-26T03:25:03.293Z,1011.05
2023-02-26T03:26:03.269Z,1011.06
2023-02-26T03:27:03.311Z,1011.14
2023-02-26T03:28:03.239Z,1011.16
2023-02-26T03:29:03.358Z,1011.13
2023-02-26T03:30:03.272Z,1011.16
2023-02-26T03:31:03.361Z,1011.18
2023-02-26T03:32:03.338Z,1011.19
2023-02-26T03:33:04.651Z,1011.19
2023-02-26T03:34:03.138Z,1011.21
2023-02-26T03:35:03.119Z,1011.27
2023-02-26T03:36:03.121Z,1011.23
2023-02-26T03:37:03.094Z,1011.26
2023-02-26T03:38:03.183Z,1011.25
2023-02-26T03:39:03.122Z,1011.28
2023-02-26T03:40:03.074Z,1011.31
2023-02-26T03:41:03.363Z,1011.32
2023-02-26T03:42:04.014Z,1011.27
2023-02-26T03:43:03.394Z,1011.33
2023-02-26T03:44:03.043Z,1011.37
2023-02-26T03:45:03.034Z,1011.42
2023-02-26T03:46:04.048Z,1011.38
2023-02-26T03:47:03.229Z,1011.41
2023-02-26T03:48:03.047Z,1011.42
2023-02-26T03:49:03.938Z,1011.37
2023-02-26T03:50:03.100Z,1011.44
2023-02-26T03:51:02.988Z,1011.38
2023-02-26T03:52:02.917Z,1011.41
2023-02-26T03:53:03.089Z,1011.48
2023-02-26T03:54:02.955Z,1011.45
2023-02-26T03:55:02.912Z,1011.46
2023-02-26T03:56:02.864Z,1011.51
2023-02-26T03:57:02.878Z,1011.47
2023-02-26T03:58:02.870Z,1011.49
2023-02-26T03:59:02.878Z,1011.55
2023-02-26T04:00:02.889Z,1011.51
2023-02-26T04:01:04.008Z,1011.51
2023-02-26T04:02:03.959Z,1011.48
2023-02-26T04:03:03.795Z,1011.56
2023-02-26T04:04:02.812Z,1011.53
2023-02-26T04:05:02.746Z,1011.60
2023-02-26T04:06:02.757Z,1011.59
2023-02-26T04:07:02.735Z,1011.62
2023-02-26T04:08:02.738Z,1011.61
2023-02-26T04:09:02.744Z,1011.58
2023-02-26T04:10:02.763Z,1011.61
2023-02-26T04:11:03.544Z,1011.65
2023-02-26T04:12:02.698Z,1011.68
2023-02-26T04:13:02.701Z,1011.70
2023-02-26T04:14:03.768Z,1011.72
2023-02-26T04:15:02.687Z,1011.74
2023-02-26T04:16:02.648Z,1011.72
2023-02-26T04:17:02.688Z,1011.74
2023-02-26T04:18:03.388Z,1011.71
2023-02-26T04:19:02.804Z,1011.74
2023-02-26T04:20:02.605Z,1011.72
2023-02-26T04:21:02.587Z,1011.77
2023-02-26T04:22:02.573Z,1011.78
2023-02-26T04:23:02.525Z,1011.81
2023-02-26T04:24:02.575Z,1011.85
2023-02-26T04:25:02.737Z,1011.86
2023-02-26T04:26:02.573Z,1011.91
2023-02-26T04:27:02.511Z,1011.88
2023-02-26T04:28:02.498Z,1011.99
2023-02-26T04:29:02.455Z,1011.92
2023-02-26T04:30:03.431Z,1011.95
2023-02-26T04:31:02.605Z,1011.97
2023-02-26T04:32:02.775Z,1012.01
2023-02-26T04:33:02.621Z,1011.99
2023-02-26T04:34:02.415Z,1012.03
2023-02-26T04:35:02.482Z,1012.07
2023-02-26T04:36:02.424Z,1012.05
2023-02-26T04:37:02.600Z,1012.08
2023-02-26T04:38:02.384Z,1012.10
2023-02-26T04:39:02.631Z,1012.14
2023-02-26T04:40:02.489Z,1012.15
2023-02-26T04:41:02.442Z,1012.13
2023-02-26T04:42:02.342Z,1012.14
2023-02-26T04:43:02.322Z,1012.18
2023-02-26T04:44:02.342Z,1012.10
2023-02-26T04:45:02.271Z,1012.14
2023-02-26T04:46:02.371Z,1012.16
2023-02-26T04:47:02.261Z,1012.15
2023-02-26T04:48:02.243Z,1012.15
2023-02-26T04:49:02.230Z,1012.09
2023-02-26T04:50:03.378Z,1012.20
2023-02-26T04:51:03.282Z,1012.13
2023-02-26T04:52:03.214Z,1012.19
2023-02-26T04:53:02.165Z,1012.19
2023-02-26T04:54:02.151Z,1012.20
2023-02-26T04:55:02.160Z,1012.21
2023-02-26T04:56:02.477Z,1012.17
2023-02-26T04:57:02.180Z,1012.22
2023-02-26T04:58:03.115Z,1012.22
2023-02-26T04:59:02.102Z,1012.28
2023-02-26T05:00:02.094Z,1012.27
2023-02-26T05:01:02.097Z,1012.21
2023-02-26T05:02:02.824Z,1012.23
2023-02-26T05:03:03.161Z,1012.28
2023-02-26T05:04:03.036Z,1012.31
2023-02-26T05:05:02.222Z,1012.31
2023-02-26T05:06:02.291Z,1012.33
2023-02-26T05:07:02.050Z,1012.36
2023-02-26T05:08:02.084Z,1012.43
2023-02-26T05:09:02.172Z,1012.43
2023-02-26T05:10:01.965Z,1012.44
2023-02-26T05:11:02.896Z,1012.47
2023-02-26T05:12:02.122Z,1012.50
2023-02-26T05:13:02.024Z,1012.52
2023-02-26T05:14:01.902Z,1012.47
2023-02-26T05:15:02.109Z,1012.52
2023-02-26T05:16:01.970Z,1012.52
2023-02-26T05:17:01.950Z,1012.55
2023-02-26T05:18:01.871Z,1012.54
2023-02-26T05:19:01.878Z,1012.55
2023-02-26T05:20:01.889Z,1012.52
2023-02-26T05:21:01.835Z,1012.59
2023-02-26T05:22:01.838Z,1012.55
2023-02-26T05:23:01.866Z,1012.56
2023-02-26T05:24:01.779Z,1012.62
2023-02-26T05:25:01.753Z,1012.65
2023-02-26T05:26:03.255Z,1012.63
2023-02-26T05:27:01.754Z,1012.65
2023-02-26T05:28:01.839Z,1012.62
2023-02-26T05:29:01.720Z,1012.66
2023-02-26T05:30:01.712Z,1012.70
2023-02-26T05:31:01.821Z,1012.69
2023-02-26T05:32:01.801Z,1012.78
2023-02-26T05:33:01.691Z,1012.72
2023-02-26T05:34:01.724Z,1012.72
2023-02-26T05:35:01.671Z,1012.79
2023-02-26T05:36:02.557Z,1012.81
2023-02-26T05:37:01.619Z,1012.81
2023-02-26T05:38:01.603Z,1012.84
2023-02-26T05:39:01.611Z,1012.85
2023-02-26T05:40:01.582Z,1012.91
2023-02-26T05:41:02.578Z,1012.91
2023-02-26T05:42:01.581Z,1012.94
2023-02-26T05:43:01.572Z,1012.90
2023-02-26T05:44:01.608Z,1013.01
2023-02-26T05:45:01.569Z,1013.05
2023-02-26T05:46:01.552Z,1013.06
2023-02-26T05:47:01.582Z,1013.03
2023-02-26T05:48:01.498Z,1013.13
2023-02-26T05:49:01.787Z,1013.09
2023-02-26T05:50:01.500Z,1013.12
2023-02-26T05:51:02.416Z,1013.17
2023-02-26T05:52:01.458Z,1013.15
2023-02-26T05:53:01.689Z,1013.24
2023-02-26T05:54:01.838Z,1013.22
2023-02-26T05:55:01.435Z,1013.28
2023-02-26T05:56:01.422Z,1013.26
2023-02-26T05:57:01.408Z,1013.23
2023-02-26T05:58:01.385Z,1013.28
2023-02-26T05:59:01.348Z,1013.29
2023-02-26T06:00:01.348Z,1013.31
2023-02-26T06:01:01.382Z,1013.32
2023-02-26T06:02:01.384Z,1013.30
2023-02-26T06:03:01.452Z,1013.40
2023-02-26T06:04:01.296Z,1013.40
2023-02-26T06:05:01.285Z,1013.44
2023-02-26T06:06:01.305Z,1013.42
2023-02-26T06:07:01.271Z,1013.50
2023-02-26T06:08:01.265Z,1013.42
2023-02-26T06:09:01.255Z,1013.44
2023-02-26T06:10:01.288Z,1013.46
2023-02-26T06:11:01.308Z,1013.50
2023-02-26T06:12:01.364Z,1013.48
2023-02-26T06:13:01.236Z,1013.49
2023-02-26T06:14:01.190Z,1013.55
2023-02-26T06:15:01.168Z,1013.55
2023-02-26T06:16:01.250Z,1013.61
2023-02-26T06:17:01.133Z,1013.58
2023-02-26T06:18:01.143Z,1013.64
2023-02-26T06:19:01.126Z,1013.67
2023-02-26T06:20:01.078Z,1013.65
2023-02-26T06:21:01.152Z,1013.67
2023-02-26T06:22:01.094Z,1013.68
2023-02-26T06:23:01.092Z,1013.71
2023-02-26T06:24:01.076Z,1013.67
2023-02-26T06:25:01.064Z,1013.63
2023-02-26T06:26:01.122Z,1013.65
2023-02-26T06:27:01.051Z,1013.64
2023-02-26T06:28:01.050Z,1013.65
2023-02-26T06:29:01.011Z,1013.64
2023-02-26T06:30:00.989Z,1013.67
2023-02-26T06:31:01.094Z,1013.70
2023-02-26T06:32:01.910Z,1013.72
2023-02-26T06:33:00.946Z,1013.68
2023-02-26T06:34:00.951Z,1013.78
2023-02-26T06:35:00.920Z,1013.75
2023-02-26T06:36:00.892Z,1013.79
2023-02-26T06:37:00.885Z,1013.80
2023-02-26T06:38:00.904Z,1013.78
2023-02-26T06:39:00.878Z,1013.78
2023-02-26T06:40:00.947Z,1013.85
2023-02-26T06:41:00.848Z,1013.78
2023-02-26T06:42:00.860Z,1013.89
2023-02-26T06:43:00.821Z,1013.91
2023-02-26T06:44:00.827Z,1013.87
2023-02-26T06:45:00.815Z,1013.85
2023-02-26T06:46:00.864Z,1013.90
2023-02-26T06:47:00.825Z,1013.89
2023-02-26T06:48:00.812Z,1013.90
2023-02-26T06:49:00.731Z,1013.96
2023-02-26T06:50:00.719Z,1013.98
2023-02-26T06:51:01.503Z,1013.98
2023-02-26T06:52:00.697Z,1014.04
2023-02-26T06:53:00.700Z,1014.08
2023-02-26T06:54:00.679Z,1014.07
2023-02-26T06:55:00.657Z,1014.11
2023-02-26T06:56:00.677Z,1014.12
2023-02-26T06:57:00.660Z,1014.16
2023-02-26T06:58:00.753Z,1014.19
2023-02-26T06:59:00.636Z,1014.16
2023-02-26T07:00:00.611Z,1014.18
2023-02-26T07:01:00.685Z,1014.20
2023-02-26T07:02:00.842Z,1014.20
2023-02-26T07:03:00.695Z,1014.26
2023-02-26T07:04:00.545Z,1014.27
2023-02-26T07:05:00.592Z,1014.27
2023-02-26T07:06:18.659Z,1014.30
2023-02-26T07:07:01.512Z,1014.30
2023-02-26T07:08:00.550Z,1014.29
2023-02-26T07:09:00.534Z,1014.32
2023-02-26T07:10:00.487Z,1014.36
2023-02-26T07:11:00.536Z,1014.37
2023-02-26T07:12:00.452Z,1014.39
2023-02-26T07:13:00.533Z,1014.42
2023-02-26T07:14:00.454Z,1014.45
2023-02-26T07:15:00.417Z,1014.46
2023-02-26T07:16:00.407Z,1014.48
2023-02-26T07:17:00.417Z,1014.48
2023-02-26T07:18:00.409Z,1014.50
2023-02-26T07:19:00.399Z,1014.58
2023-02-26T07:20:00.357Z,1014.61
2023-02-26T07:21:00.388Z,1014.52
2023-02-26T07:22:00.358Z,1014.59
2023-02-26T07:23:00.344Z,1014.63
2023-02-26T07:24:00.319Z,1014.61
2023-02-26T07:25:00.327Z,1014.69
2023-02-26T07:26:00.382Z,1014.66
2023-02-26T07:27:00.276Z,1014.67
2023-02-26T07:28:00.296Z,1014.66
2023-02-26T07:29:00.248Z,1014.67
2023-02-26T07:30:00.266Z,1014.72
2023-02-26T07:31:00.397Z,1014.77
2023-02-26T07:32:00.277Z,1014.75
2023-02-26T07:33:00.208Z,1014.71
2023-02-26T07:34:00.168Z,1014.78
2023-02-26T07:35:00.228Z,1014.82
2023-02-26T07:36:00.196Z,1014.85
2023-02-26T07:37:00.167Z,1014.88
2023-02-26T07:38:00.130Z,1014.92
2023-02-26T07:39:00.185Z,1014.92
2023-02-26T07:40:00.175Z,1014.92
2023-02-26T07:41:00.153Z,1014.93
2023-02-26T07:42:00.108Z,1014.93
2023-02-26T07:43:00.287Z,1015.01
2023-02-26T07:44:00.044Z,1014.98
2023-02-26T07:45:00.105Z,1015.01
2023-02-26T07:46:00.152Z,1015.04
2023-02-26T07:47:00.015Z,1015.08
2023-02-26T07:48:00.799Z,1015.11
2023-02-26T07:49:00.035Z,1015.10
2023-02-26T07:49:59.987Z,1015.11
2023-02-26T07:51:00.037Z,1015.14
2023-02-26T07:51:59.941Z,1015.14
2023-02-26T07:52:59.967Z,1015.20
2023-02-26T07:53:59.993Z,1015.23
2023-02-26T07:54:59.946Z,1015.19
2023-02-26T07:56:00.912Z,1015.25
2023-02-26T07:56:59.959Z,1015.23
2023-02-26T07:57:59.942Z,1015.26
2023-02-26T07:59:00.037Z,1015.25
2023-02-26T07:59:59.841Z,1015.29
2023-02-26T08:00:59.848Z,1015.25
2023-02-26T08:01:59.840Z,1015.30
2023-02-26T08:02:59.836Z,1015.28
2023-02-26T08:03:59.850Z,1015.32
2023-02-26T08:04:59.803Z,1015.35
2023-02-26T08:05:59.802Z,1015.36
2023-02-26T08:06:59.842Z,1015.35
2023-02-26T08:07:59.826Z,1015.42
2023-02-26T08:08:59.765Z,1015.39
2023-02-26T08:09:59.734Z,1015.42
2023-02-26T08:11:00.986Z,1015.44
2023-02-26T08:11:59.876Z,1015.44
2023-02-26T08:13:01.206Z,1015.49
2023-02-26T08:13:59.934Z,1015.48
2023-02-26T08:14:59.681Z,1015.54
2023-02-26T08:15:59.681Z,1015.51
2023-02-26T08:16:59.644Z,1015.56
2023-02-26T08:17:59.661Z,1015.61
2023-02-26T08:18:59.645Z,1015.56
2023-02-26T08:19:59.592Z,1015.55
2023-02-26T08:20:59.714Z,1015.54
2023-02-26T08:21:59.856Z,1015.54
2023-02-26T08:22:59.607Z,1015.53
2023-02-26T08:23:59.575Z,1015.61
2023-02-26T08:24:59.536Z,1015.64
2023-02-26T08:25:59.984Z,1015.64
2023-02-26T08:26:59.650Z,1015.64
2023-02-26T08:27:59.636Z,1015.71
2023-02-26T08:28:59.502Z,1015.71
2023-02-26T08:29:59.525Z,1015.69
2023-02-26T08:30:59.609Z,1015.71
2023-02-26T08:31:59.552Z,1015.71
2023-02-26T08:32:59.546Z,1015.70
2023-02-26T08:33:59.452Z,1015.71
2023-02-26T08:34:59.576Z,1015.74
2023-02-26T08:35:59.420Z,1015.72
2023-02-26T08:36:59.445Z,1015.79
2023-02-26T08:37:59.442Z,1015.82
2023-02-26T08:38:59.444Z,1015.83
2023-02-26T08:39:59.385Z,1015.85
2023-02-26T08:40:59.770Z,1015.82
2023-02-26T08:41:59.366Z,1015.89
2023-02-26T08:43:00.465Z,1015.86
2023-02-26T08:43:59.414Z,1015.88
2023-02-26T08:44:59.464Z,1015.88
2023-02-26T08:45:59.328Z,1015.88
2023-02-26T08:46:59.565Z,1016.01
2023-02-26T08:47:59.309Z,1016.06
2023-02-26T08:48:59.271Z,1015.96
2023-02-26T08:49:59.288Z,1015.97
2023-02-26T08:50:59.286Z,1015.99
2023-02-26T08:52:00.124Z,1016.04
2023-02-26T08:52:59.494Z,1016.04
2023-02-26T08:53:59.199Z,1016.02
2023-02-26T08:54:59.214Z,1016.01
2023-02-26T08:55:59.149Z,1016.03
2023-02-26T08:56:59.179Z,1016.00
2023-02-26T08:57:59.249Z,1016.02
2023-02-26T08:58:59.117Z,1016.01
2023-02-26T08:59:59.596Z,1016.08
2023-02-26T09:01:00.275Z,1016.11
2023-02-26T09:01:59.107Z,1016.10
2023-02-26T09:02:59.137Z,1016.04
2023-02-26T09:03:59.094Z,1016.10
2023-02-26T09:04:59.084Z,1016.06
2023-02-26T09:05:59.085Z,1016.03
2023-02-26T09:06:59.100Z,1016.08
2023-02-26T09:08:00.185Z,1016.11
2023-02-26T09:08:59.000Z,1016.14
2023-02-26T09:09:59.031Z,1016.15
2023-02-26T09:10:58.994Z,1016.21
2023-02-26T09:11:59.121Z,1016.13
2023-02-26T09:13:00.421Z,1016.19
2023-02-26T09:13:59.066Z,1016.20
2023-02-26T09:14:58.964Z,1016.16
2023-02-26T09:15:59.015Z,1016.20
2023-02-26T09:16:59.760Z,1016.17
2023-02-26T09:17:58.894Z,1016.22
2023-02-26T09:18:58.954Z,1016.16
2023-02-26T09:19:58.874Z,1016.24
2023-02-26T09:20:58.861Z,1016.17
2023-02-26T09:21:58.932Z,1016.20
2023-02-26T09:22:58.862Z,1016.25
2023-02-26T09:23:58.851Z,1016.23
2023-02-26T09:24:58.870Z,1016.28
2023-02-26T09:25:58.821Z,1016.22
2023-02-26T09:26:58.782Z,1016.23
2023-02-26T09:27:59.829Z,1016.24
2023-02-26T09:28:58.888Z,1016.27
2023-02-26T09:29:58.757Z,1016.28
2023-02-26T09:30:59.949Z,1016.27
2023-02-26T09:31:58.838Z,1016.21
2023-02-26T09:32:58.734Z,1016.23
2023-02-26T09:33:58.723Z,1016.25
2023-02-26T09:34:58.705Z,1016.33
2023-02-26T09:35:58.653Z,1016.27
2023-02-26T09:36:58.667Z,1016.37
2023-02-26T09:37:58.672Z,1016.28
2023-02-26T09:38:58.704Z,1016.38
2023-02-26T09:39:58.652Z,1016.36
2023-02-26T09:40:59.508Z,1016.39
2023-02-26T09:41:58.759Z,1016.37
2023-02-26T09:42:58.611Z,1016.38
2023-02-26T09:43:58.574Z,1016.41
2023-02-26T09:44:59.119Z,1016.36
2023-02-26T09:45:58.598Z,1016.34
2023-02-26T09:46:58.565Z,1016.36
2023-02-26T09:47:58.533Z,1016.39
2023-02-26T09:48:59.763Z,1016.41
2023-02-26T09:49:58.514Z,1016.38
2023-02-26T09:50:58.553Z,1016.42
2023-02-26T09:51:58.588Z,1016.41
2023-02-26T09:52:59.403Z,1016.48
2023-02-26T09:53:58.429Z,1016.54
2023-02-26T09:54:58.437Z,1016.46
2023-02-26T09:55:59.516Z,1016.51
2023-02-26T09:56:58.459Z,1016.53
2023-02-26T09:57:58.469Z,1016.45
2023-02-26T09:58:58.396Z,1016.52
2023-02-26T09:59:58.391Z,1016.49
2023-02-26T10:00:58.666Z,1016.50
2023-02-26T10:01:58.397Z,1016.58
2023-02-26T10:02:58.376Z,1016.49
2023-02-26T10:03:59.032Z,1016.55
2023-02-26T10:04:58.319Z,1016.56
2023-02-26T10:05:58.352Z,1016.62
2023-02-26T10:06:58.394Z,1016.63
2023-02-26T10:07:58.371Z,1016.61
2023-02-26T10:08:58.571Z,1016.66
2023-02-26T10:09:59.293Z,1016.65
2023-02-26T10:10:58.254Z,1016.66
2023-02-26T10:11:58.259Z,1016.67
2023-02-26T10:12:58.374Z,1016.72
2023-02-26T10:13:58.586Z,1016.73
2023-02-26T10:14:58.210Z,1016.72
2023-02-26T10:15:59.226Z,1016.71
2023-02-26T10:16:59.189Z,1016.72
2023-02-26T10:17:59.606Z,1016.72
2023-02-26T10:18:58.211Z,1016.73
2023-02-26T10:19:58.182Z,1016.75
2023-02-26T10:20:59.032Z,1016.68
2023-02-26T10:21:58.100Z,1016.77
2023-02-26T10:22:58.188Z,1016.74
2023-02-26T10:23:58.085Z,1016.81
2023-02-26T10:24:58.734Z,1016.80
2023-02-26T10:25:58.050Z,1016.79
2023-02-26T10:26:59.195Z,1016.84
2023-02-26T10:27:58.159Z,1016.85
2023-02-26T10:28:58.060Z,1016.83
2023-02-26T10:29:58.024Z,1016.89
2023-02-26T10:30:58.336Z,1016.92
2023-02-26T10:31:58.182Z,1016.91
2023-02-26T10:32:58.094Z,1016.86
2023-02-26T10:33:58.026Z,1016.93
2023-02-26T10:34:58.180Z,1016.85
2023-02-26T10:35:59.297Z,1016.91
2023-02-26T10:36:57.916Z,1016.96
2023-02-26T10:37:57.890Z,1016.98
2023-02-26T10:38:57.887Z,1017.02
2023-02-26T10:39:58.136Z,1016.97
2023-02-26T10:40:57.863Z,1017.00
2023-02-26T10:41:59.144Z,1017.00
2023-02-26T10:42:58.676Z,1017.02
2023-02-26T10:43:57.819Z,1017.05
2023-02-26T10:44:57.800Z,1017.06
2023-02-26T10:45:57.923Z,1017.00
2023-02-26T10:46:57.798Z,1017.05
2023-02-26T10:47:58.405Z,1017.02
2023-02-26T10:48:57.869Z,1017.07
2023-02-26T10:49:57.767Z,1017.01
2023-02-26T10:50:57.734Z,1017.12
2023-02-26T10:51:57.761Z,1017.05
2023-02-26T10:52:57.954Z,1017.08
2023-02-26T10:53:57.836Z,1017.05
2023-02-26T10:54:58.548Z,1017.03
2023-02-26T10:55:57.717Z,1017.12
2023-02-26T10:56:57.745Z,1017.05
2023-02-26T10:57:57.669Z,1017.07
2023-02-26T10:58:57.654Z,1017.05
2023-02-26T10:59:57.626Z,1017.07
2023-02-26T11:00:57.723Z,1017.08
2023-02-26T11:01:57.576Z,1017.10
2023-02-26T11:02:57.627Z,1017.08
2023-02-26T11:03:57.650Z,1017.11
2023-02-26T11:05:07.102Z,1017.14
2023-02-26T11:05:58.943Z,1017.17
2023-02-26T11:06:57.587Z,1017.19
2023-02-26T11:07:57.625Z,1017.15
2023-02-26T11:08:57.830Z,1017.19
2023-02-26T11:09:58.169Z,1017.25
2023-02-26T11:10:58.452Z,1017.26
2023-02-26T11:11:57.493Z,1017.20
2023-02-26T11:12:57.525Z,1017.24
2023-02-26T11:13:57.467Z,1017.23
2023-02-26T11:14:57.423Z,1017.26
2023-02-26T11:15:57.466Z,1017.26
2023-02-26T11:16:57.446Z,1017.21
2023-02-26T11:17:57.479Z,1017.22
2023-02-26T11:18:58.297Z,1017.25
2023-02-26T11:19:58.194Z,1017.19
2023-02-26T11:20:58.612Z,1017.22
2023-02-26T11:21:57.334Z,1017.21
2023-02-26T11:22:57.478Z,1017.24
2023-02-26T11:23:57.499Z,1017.32
2023-02-26T11:24:57.315Z,1017.28
2023-02-26T11:25:57.290Z,1017.30
2023-02-26T11:26:57.277Z,1017.29
2023-02-26T11:27:58.466Z,1017.30
2023-02-26T11:28:57.353Z,1017.30
2023-02-26T11:29:57.495Z,1017.30
2023-02-26T11:30:58.262Z,1017.25
2023-02-26T11:31:57.448Z,1017.32
2023-02-26T11:32:57.985Z,1017.29
2023-02-26T11:33:57.260Z,1017.33
2023-02-26T11:34:57.204Z,1017.33
2023-02-26T11:35:57.174Z,1017.37
2023-02-26T11:36:57.520Z,1017.32
2023-02-26T11:37:57.445Z,1017.32
2023-02-26T11:38:57.345Z,1017.32
2023-02-26T11:39:57.468Z,1017.28
2023-02-26T11:40:57.546Z,1017.31
2023-02-26T11:41:57.313Z,1017.27
2023-02-26T11:42:57.534Z,1017.24
2023-02-26T11:43:57.315Z,1017.27
2023-02-26T11:44:57.123Z,1017.31
2023-02-26T11:45:57.120Z,1017.36
2023-02-26T11:46:57.321Z,1017.44
2023-02-26T11:47:57.339Z,1017.41
2023-02-26T11:48:57.395Z,1017.42
2023-02-26T11:49:56.988Z,1017.42
2023-02-26T11:50:57.783Z,1017.43
2023-02-26T11:51:57.056Z,1017.34
2023-02-26T11:52:56.978Z,1017.36
2023-02-26T11:53:58.040Z,1017.35
2023-02-26T11:54:56.993Z,1017.39
2023-02-26T11:55:57.403Z,1017.41
2023-02-26T11:56:57.106Z,1017.39
2023-02-26T11:57:56.898Z,1017.35
2023-02-26T11:58:57.526Z,1017.45
2023-02-26T11:59:57.362Z,1017.36
2023-02-26T12:00:56.889Z,1017.42
2023-02-26T12:01:56.852Z,1017.32
2023-02-26T12:02:56.936Z,1017.38
2023-02-26T12:03:57.566Z,1017.36
2023-02-26T12:04:56.810Z,1017.39